Time;durP1;ratioP1;P1;durP2;ratioP2;P2;SDS_P1;SDS_P2;PMS_P1;PMS_P2;Temp;Humidity;BMP_temperature;BMP_pressure;BME280_temperature;BME280_humidity;BME280_pressure;Samples;Min_cycle;Max_cycle;Signal;HPM_P1;HPM_P2
2022/01/15 00:02:30;;;;;;;;;;;;;;;;;;;;;
2022/01/15 00:05:35;;;;;;;;;;;;;;;;;;;;;
2022/01/15 00:08:14;;;;;;;;;74.50;58.25;;;;;6.73;75.83;102225.34;4919544;28;69035;-79
2022/01/15 00:11:36;;;;;;;;;77.75;60.25;;;;;7.14;76.07;102298.81;4952995;28;47195;-79
2022/01/15 00:20:08;;;;;;;;;82.75;63.00;;;;;7.09;75.84;102285.06;4860982;29;45719;-78
2022/01/15 00:22:33;;;;;;;;;81.25;61.50;;;;;6.91;76.00;102260.38;4860105;29;46369;-79
2022/01/15 00:24:59;;;;;;;;;81.50;62.00;;;;;7.11;76.10;102283.28;4860780;29;45668;-79
2022/01/15 00:27:24;;;;;;;;;76.75;60.00;;;;;7.10;76.04;102289.38;4860671;29;46124;-79
2022/01/15 00:33:10;;;;;;;;;78.75;61.00;;;;;6.72;76.00;102225.38;4860587;29;46130;-79
2022/01/15 00:35:37;;;;;;;;;74.50;59.75;;;;;6.97;75.93;102259.34;4860547;29;46652;-78
2022/01/15 00:38:08;;;;;;;;;85.00;61.75;;;;;6.78;75.94;102229.53;4865364;29;45695;-78
2022/01/15 00:40:34;;;;;;;;;73.25;57.50;;;;;7.08;76.08;102278.13;4882622;28;46027;-78
2022/01/15 00:42:59;;;;;;;;;41.50;29.50;;;;;6.92;76.10;102248.22;4916605;28;45637;-78
2022/01/15 00:45:32;;;;;;;;;75.75;59.75;;;;;7.05;76.04;102267.81;4946176;28;45726;-82
2022/01/15 00:47:58;;;;;;;;;74.25;58.50;;;;;7.05;75.99;102268.66;4957486;28;45637;-81
2022/01/15 00:50:23;;;;;;;;;76.75;61.00;;;;;6.77;76.06;102223.47;4993989;28;45587;-80
2022/01/15 00:52:51;;;;;;;;;79.75;59.50;;;;;7.03;76.23;102265.25;5083247;28;45541;-79
2022/01/15 00:55:26;;;;;;;;;78.75;60.25;;;;;7.03;76.14;102269.59;5085602;28;46225;-81
2022/01/15 01:04:48;;;;;;;;;84.75;62.75;;;;;6.58;76.03;102206.69;4998716;28;45635;-80
2022/01/15 01:07:57;;;;;;;;;80.25;59.50;;;;;6.93;76.01;102256.00;4995466;28;46691;-78
2022/01/15 01:20:08;;;;;;;;;81.75;60.50;;;;;6.50;76.21;102167.84;4861111;29;45900;-81
2022/01/15 01:25:19;;;;;;;;;78.25;61.50;;;;;6.84;76.36;102211.13;4858847;29;45665;-81
2022/01/15 01:27:49;;;;;;;;;74.75;58.25;;;;;6.83;76.09;102219.84;4859563;29;45643;-79
2022/01/15 01:33:44;;;;;;;;;77.25;60.50;;;;;6.84;76.22;102232.84;4859914;29;45808;-79
2022/01/15 01:38:49;;;;;;;;;80.25;62.25;;;;;6.77;76.27;102213.06;4845117;29;46221;-77
2022/01/15 01:41:19;;;;;;;;;80.00;61.75;;;;;6.72;76.32;102208.00;4841119;29;46356;-82
2022/01/15 01:43:52;;;;;;;;;82.75;61.00;;;;;6.74;76.19;102221.84;4841399;29;45825;-81
2022/01/15 01:48:52;;;;;;;;;80.25;60.25;;;;;6.77;76.28;102231.28;4840800;29;45717;-79
2022/01/15 01:51:31;;;;;;;;;80.25;64.25;;;;;6.75;76.41;102225.25;4841166;29;46315;-80
2022/01/15 01:54:00;;;;;;;;;74.00;58.25;;;;;6.70;76.44;102221.94;4870572;29;45862;-81
2022/01/15 01:56:26;;;;;;;;;85.25;64.00;;;;;6.71;76.27;102219.31;4986003;28;45688;-79
2022/01/15 01:58:52;;;;;;;;;88.50;65.75;;;;;6.70;76.18;102212.38;5055390;28;45899;-80
2022/01/15 02:01:17;;;;;;;;;84.25;61.50;;;;;6.68;76.24;102201.19;5055636;28;46097;-79
2022/01/15 02:03:42;;;;;;;;;89.25;67.75;;;;;6.68;76.12;102205.53;5066157;28;45832;-78
2022/01/15 02:06:08;;;;;;;;;88.00;65.50;;;;;6.65;76.35;102201.25;5075974;28;45537;-81
2022/01/15 02:08:34;;;;;;;;;87.00;64.75;;;;;6.66;76.32;102200.34;5073645;28;47514;-80
2022/01/15 02:11:03;;;;;;;;;84.50;61.50;;;;;6.66;76.38;102196.91;5075878;28;46238;-78
2022/01/15 02:13:29;;;;;;;;;88.25;67.75;;;;;6.64;76.44;102204.75;5075787;28;45513;-77
2022/01/15 02:19:16;;;;;;;;;82.00;63.50;;;;;6.54;76.57;102179.03;5075056;28;45741;-79
2022/01/15 02:24:24;;;;;;;;;82.50;62.25;;;;;6.59;76.53;102188.41;5075168;28;45703;-80
2022/01/15 02:26:49;;;;;;;;;78.75;60.25;;;;;6.56;76.17;102180.69;5075624;28;45806;-80
2022/01/15 02:29:16;;;;;;;;;76.75;60.25;;;;;6.53;76.64;102180.78;5076115;28;46179;-79
2022/01/15 02:31:41;;;;;;;;;78.00;58.00;;;;;6.56;76.53;102180.69;5075631;28;46291;-80
2022/01/15 02:34:07;;;;;;;;;80.75;61.25;;;;;6.56;76.59;102183.31;5075978;28;45554;-81
2022/01/15 02:36:35;;;;;;;;;77.50;59.75;;;;;6.52;76.45;102170.41;5074569;28;45888;-80
2022/01/15 02:39:21;;;;;;;;;81.75;59.50;;;;;6.41;76.44;102151.66;5075042;28;45862;-79
2022/01/15 02:41:46;;;;;;;;;79.75;59.00;;;;;6.47;76.31;102169.72;5056179;28;47155;-80
2022/01/15 02:44:17;;;;;;;;;76.75;58.00;;;;;6.50;76.30;102169.59;5075628;28;45759;-81
2022/01/15 02:49:17;;;;;;;;;74.25;59.00;;;;;6.20;76.61;102114.09;5075464;28;46205;-81
2022/01/15 02:51:46;;;;;;;;;80.00;59.25;;;;;6.14;76.41;102109.06;5075048;28;46390;-81
2022/01/15 02:54:11;;;;;;;;;71.50;54.50;;;;;6.53;76.32;102166.94;5075505;28;45734;-80
2022/01/15 02:56:42;;;;;;;;;62.25;50.50;;;;;6.47;76.58;102160.16;5075122;28;45548;-79
2022/01/15 02:59:10;;;;;;;;;71.00;56.00;;;;;6.48;76.60;102155.78;5074878;28;46640;-80
2022/01/15 03:01:35;;;;;;;;;73.50;55.50;;;;;6.28;76.46;102112.09;5075433;28;45997;-81
2022/01/15 03:04:01;;;;;;;;;70.50;57.00;;;;;6.53;76.50;102151.31;5076329;28;45499;-79
2022/01/15 03:06:27;;;;;;;;;74.25;58.25;;;;;6.38;76.55;102134.38;5074872;28;45594;-81
2022/01/15 03:08:53;;;;;;;;;72.25;54.75;;;;;6.51;76.29;102153.09;5075000;28;46583;-79
2022/01/15 03:11:19;;;;;;;;;71.75;57.50;;;;;6.50;76.63;102153.97;5056457;28;45578;-81
2022/01/15 03:13:45;;;;;;;;;65.75;52.75;;;;;6.45;76.24;102146.31;5076452;28;45617;-80
2022/01/15 03:19:33;;;;;;;;;68.50;55.50;;;;;6.48;76.42;102142.78;5075069;28;45771;-78
2022/01/15 03:21:58;;;;;;;;;68.75;53.25;;;;;6.48;76.31;102148.81;5075291;28;46860;-78
2022/01/15 03:24:23;;;;;;;;;70.00;55.25;;;;;6.47;76.33;102149.72;5075241;28;45651;-79
2022/01/15 03:26:49;;;;;;;;;70.25;56.00;;;;;6.46;76.22;102148.03;5056134;28;46169;-79
2022/01/15 03:29:14;;;;;;;;;63.75;53.25;;;;;6.33;76.28;102125.84;5055962;28;46656;-79
2022/01/15 03:35:09;;;;;;;;;70.75;57.00;;;;;6.43;76.18;102132.47;5074180;28;45759;-82
2022/01/15 03:37:34;;;;;;;;;64.75;51.00;;;;;6.42;76.41;102128.19;5074321;28;45525;-80
2022/01/15 03:40:00;;;;;;;;;72.50;55.75;;;;;6.42;76.08;102128.19;5073325;28;46523;-80
2022/01/15 03:42:25;;;;;;;;;64.25;52.50;;;;;6.41;76.34;102120.41;5055844;28;47123;-80
2022/01/15 03:44:50;;;;;;;;;70.00;55.00;;;;;6.26;76.39;102100.91;5074574;28;45698;-80
2022/01/15 03:47:17;;;;;;;;;71.50;54.50;;;;;6.33;76.44;102112.81;5073932;28;45604;-79
2022/01/15 03:49:45;;;;;;;;;67.75;55.00;;;;;6.38;76.17;102117.88;5057505;28;47022;-80
2022/01/15 03:52:11;;;;;;;;;67.50;52.50;;;;;6.39;76.36;102106.59;5077348;28;46202;-80
2022/01/15 03:54:37;;;;;;;;;70.50;54.00;;;;;6.37;76.21;102114.44;5075736;28;45525;-82
2022/01/15 03:57:04;;;;;;;;;66.75;52.25;;;;;6.35;76.04;102097.16;5077469;28;45755;-78
2022/01/15 03:59:32;;;;;;;;;70.50;55.25;;;;;6.34;76.37;102104.13;5077382;28;45923;-80
2022/01/15 04:05:20;;;;;;;;;67.50;51.50;;;;;6.30;76.22;102095.56;5075723;28;45799;-78
2022/01/15 04:07:46;;;;;;;;;63.00;51.25;;;;;6.29;76.33;102093.84;5077489;28;45744;-80
2022/01/15 04:10:13;;;;;;;;;65.00;51.50;;;;;6.28;76.06;102094.75;5077383;28;46293;-79
2022/01/15 04:12:38;;;;;;;;;64.50;52.50;;;;;6.18;76.01;102071.66;5077446;28;46095;-80
2022/01/15 04:15:06;;;;;;;;;67.75;52.75;;;;;6.23;76.38;102081.03;5058853;28;45749;-80
2022/01/15 04:17:31;;;;;;;;;70.50;52.50;;;;;6.26;76.23;102082.69;5058850;28;45969;-80
2022/01/15 04:19:58;;;;;;;;;65.00;52.25;;;;;6.20;76.20;102077.66;5059034;28;46878;-80
2022/01/15 04:22:23;;;;;;;;;69.75;56.00;;;;;6.20;76.41;102082.88;5077085;28;47012;-78
2022/01/15 04:24:49;;;;;;;;;69.00;54.75;;;;;6.24;76.26;102081.88;5077258;28;45672;-80
2022/01/15 04:27:14;;;;;;;;;69.00;53.75;;;;;6.17;76.60;102065.59;5077506;28;45714;-80
2022/01/15 04:29:40;;;;;;;;;66.75;53.00;;;;;6.14;76.52;102057.03;5077617;28;46682;-79
2022/01/15 04:35:44;;;;;;;;;69.25;54.00;;;;;6.16;76.47;102048.25;5077254;28;45812;-79
2022/01/15 04:38:13;;;;;;;;;68.25;51.75;;;;;5.87;76.36;102002.31;5060254;28;45783;-80
2022/01/15 04:40:41;;;;;;;;;64.00;51.25;;;;;6.22;76.39;102071.50;5043988;28;47571;-79
2022/01/15 04:43:16;;;;;;;;;70.75;53.50;;;;;5.66;76.12;101971.72;5061096;28;46520;-79
2022/01/15 04:45:41;;;;;;;;;71.25;58.00;;;;;5.75;76.39;101994.84;5079545;28;45624;-79
2022/01/15 04:48:07;;;;;;;;;66.50;53.00;;;;;5.93;76.25;102019.50;5077982;28;45545;-78
2022/01/15 04:50:32;;;;;;;;;70.50;54.25;;;;;6.15;76.35;102048.34;5075293;28;45652;-79
2022/01/15 04:52:59;;;;;;;;;76.50;58.50;;;;;5.95;76.35;102033.28;5077072;28;45546;-78
2022/01/15 04:55:24;;;;;;;;;66.25;53.25;;;;;6.17;76.39;102065.59;5076739;28;45680;-79
2022/01/15 04:57:50;;;;;;;;;64.50;49.25;;;;;6.06;76.15;102059.84;5077067;28;45733;-78
2022/01/15 05:07:13;;;;;;;;;74.25;55.00;;;;;6.04;76.24;102043.44;4974757;28;45873;-80
2022/01/15 05:09:44;;;;;;;;;67.75;56.00;;;;;6.14;76.29;102055.28;4975190;28;45985;-81
2022/01/15 05:12:25;;;;;;;;;71.75;57.00;;;;;6.12;76.52;102043.19;4975398;28;46257;-79
2022/01/15 05:14:51;;;;;;;;;73.25;56.50;;;;;6.10;76.49;102051.03;4975383;28;45712;-79
2022/01/15 05:20:43;;;;;;;;;74.00;58.75;;;;;6.12;76.55;102053.59;4974152;28;45742;-80
2022/01/15 05:23:09;;;;;;;;;81.25;59.75;;;;;6.11;76.16;102042.34;4974490;28;45596;-79
2022/01/15 05:25:43;;;;;;;;;75.25;61.00;;;;;6.10;76.24;102051.03;4974623;28;46266;-79
2022/01/15 05:28:08;;;;;;;;;86.00;60.75;;;;;6.10;76.71;102053.66;4973903;28;45534;-79
2022/01/15 05:30:34;;;;;;;;;75.25;56.75;;;;;5.98;76.35;102035.81;4973989;28;45505;-78
2022/01/15 05:36:21;;;;;;;;;77.00;58.00;;;;;6.03;76.49;102040.88;5075687;28;45750;-80
2022/01/15 05:38:47;;;;;;;;;71.25;57.00;;;;;5.99;76.33;102036.66;5075825;28;45510;-80
2022/01/15 05:41:15;;;;;;;;;71.75;54.75;;;;;6.04;76.53;102053.00;5075932;28;45934;-79
2022/01/15 05:43:41;;;;;;;;;75.75;55.50;;;;;6.01;76.52;102047.88;5074235;28;49093;-78
2022/01/15 05:46:06;;;;;;;;;66.00;54.00;;;;;5.99;76.43;102052.28;5075359;28;45766;-78
2022/01/15 05:48:31;;;;;;;;;73.25;55.00;;;;;5.94;76.16;102049.78;5075213;28;45597;-77
2022/01/15 05:50:57;;;;;;;;;70.50;56.25;;;;;5.97;76.13;102062.72;5076006;28;45606;-78
2022/01/15 05:53:22;;;;;;;;;72.25;53.00;;;;;5.90;76.38;102053.38;5075990;28;46202;-78
2022/01/15 05:55:48;;;;;;;;;74.25;58.00;;;;;5.79;76.52;102034.59;5075655;28;46117;-79
2022/01/15 05:58:13;;;;;;;;;68.50;55.75;;;;;5.91;76.54;102062.88;5075626;28;45557;-80
2022/01/15 06:00:39;;;;;;;;;74.50;56.75;;;;;5.88;76.69;102063.00;5076213;28;45777;-80
2022/01/15 06:06:26;;;;;;;;;76.50;57.00;;;;;5.76;76.61;102051.16;5074705;28;45751;-79
2022/01/15 06:08:51;;;;;;;;;72.75;57.50;;;;;5.86;76.36;102069.94;5077330;28;45779;-79
2022/01/15 06:11:18;;;;;;;;;74.75;57.75;;;;;5.85;76.33;102065.63;5076671;28;45681;-80
2022/01/15 06:13:45;;;;;;;;;75.00;57.50;;;;;5.85;76.30;102069.09;5077281;28;46379;-80
2022/01/15 06:16:13;;;;;;;;;77.50;59.75;;;;;5.84;76.94;102059.56;5077869;28;46162;-78
2022/01/15 06:18:39;;;;;;;;;75.75;55.25;;;;;5.86;76.40;102060.38;5080220;28;45642;-80
2022/01/15 06:21:05;;;;;;;;;79.50;62.00;;;;;5.78;76.72;102048.47;5081791;28;45660;-79
2022/01/15 06:23:31;;;;;;;;;74.25;56.75;;;;;5.83;76.20;102063.06;5060263;28;47467;-80
2022/01/15 06:25:56;;;;;;;;;74.50;60.25;;;;;5.77;76.49;102047.66;5057480;28;47013;-80
2022/01/15 06:28:22;;;;;;;;;71.75;59.25;;;;;5.75;76.20;102043.38;5075657;28;45745;-78
2022/01/15 06:30:51;;;;;;;;;73.25;60.50;;;;;5.73;76.47;102037.34;5075700;28;45574;-78
2022/01/15 06:36:38;;;;;;;;;67.75;50.75;;;;;5.74;76.54;102050.31;5074838;28;45842;-77
2022/01/15 06:39:03;;;;;;;;;71.00;56.25;;;;;5.72;76.73;102040.88;5074979;28;45635;-80
2022/01/15 06:41:29;;;;;;;;;96.25;70.25;;;;;5.74;76.79;102045.13;5075216;28;45649;-78
2022/01/15 06:43:54;;;;;;;;;92.50;67.00;;;;;5.66;76.91;102031.50;5075083;28;46299;-80
2022/01/15 06:46:19;;;;;;;;;84.75;62.00;;;;;5.74;76.79;102044.25;5075079;28;45773;-80
2022/01/15 06:52:07;;;;;;;;;78.50;61.00;;;;;5.73;76.53;102046.00;5074576;28;45551;-79
2022/01/15 06:54:32;;;;;;;;;89.00;66.25;;;;;5.72;76.60;102052.09;5056426;28;46627;-78
2022/01/15 06:56:57;;;;;;;;;79.00;61.75;;;;;5.73;77.04;102038.22;5074391;28;47072;-82
2022/01/15 06:59:23;;;;;;;;;86.75;63.00;;;;;5.62;76.71;102016.84;5074496;28;45560;-81
2022/01/15 07:01:48;;;;;;;;;83.25;64.75;;;;;5.71;77.08;102036.56;5074696;28;45691;-81
2022/01/15 07:04:14;;;;;;;;;84.75;66.75;;;;;5.67;76.73;102025.38;5074582;28;46304;-80
2022/01/15 07:06:39;;;;;;;;;70.75;56.75;;;;;5.70;76.88;102025.31;5073738;28;46879;-79
2022/01/15 07:09:05;;;;;;;;;78.75;60.50;;;;;5.67;76.49;102014.97;5056240;28;45899;-79
2022/01/15 07:11:30;;;;;;;;;77.50;58.50;;;;;5.69;76.57;102023.59;5074722;28;45492;-79
2022/01/15 07:13:55;;;;;;;;;78.50;61.25;;;;;5.66;76.98;102009.84;5074895;28;45822;-81
2022/01/15 07:16:21;;;;;;;;;85.25;63.25;;;;;5.68;76.82;102014.09;5074547;28;46005;-78
2022/01/15 07:22:09;;;;;;;;;78.25;61.50;;;;;5.62;76.48;102003.88;5074883;28;45688;-82
2022/01/15 07:24:36;;;;;;;;;84.50;64.75;;;;;5.68;76.62;102014.09;5073175;28;46506;-80
2022/01/15 07:27:02;;;;;;;;;75.75;58.75;;;;;5.65;76.92;102010.75;5074022;28;47171;-79
2022/01/15 07:29:30;;;;;;;;;84.00;63.75;;;;;5.68;76.61;102027.09;5074394;28;45627;-79
2022/01/15 07:31:56;;;;;;;;;82.75;63.25;;;;;5.56;76.74;102000.59;5056230;28;45775;-80
2022/01/15 07:37:43;;;;;;;;;79.00;61.00;;;;;5.61;76.62;102009.13;5074001;28;45795;-79
2022/01/15 07:40:09;;;;;;;;;75.25;59.50;;;;;5.61;76.71;102009.97;5074825;28;45514;-80
2022/01/15 07:42:38;;;;;;;;;84.00;61.75;;;;;5.59;76.96;102005.72;5074106;28;45462;-80
2022/01/15 07:45:07;;;;;;;;;83.25;59.75;;;;;5.53;76.96;101998.06;5073901;28;47521;-80
2022/01/15 07:47:33;;;;;;;;;82.75;63.50;;;;;5.42;76.39;101978.44;5073792;28;46218;-80
2022/01/15 07:49:58;;;;;;;;;77.50;60.00;;;;;5.59;77.04;102003.97;5074770;28;45616;-79
2022/01/15 07:52:24;;;;;;;;;85.25;63.00;;;;;5.60;77.06;102008.28;5074083;28;45766;-81
2022/01/15 07:54:49;;;;;;;;;82.25;62.50;;;;;5.61;76.63;102012.59;5073013;28;47732;-80
2022/01/15 07:57:15;;;;;;;;;80.50;62.00;;;;;5.63;76.73;102012.50;5073852;28;46150;-81
2022/01/15 07:59:40;;;;;;;;;80.00;62.25;;;;;5.63;76.76;102008.16;5074444;28;45698;-79
2022/01/15 08:02:05;;;;;;;;;84.25;62.00;;;;;5.56;76.90;102004.03;5074454;28;45549;-79
2022/01/15 08:07:53;;;;;;;;;80.00;63.50;;;;;5.55;76.97;102004.09;5072182;28;45803;-81
2022/01/15 08:10:18;;;;;;;;;79.75;59.25;;;;;5.51;76.85;101992.91;5073956;28;45460;-81
2022/01/15 08:12:51;;;;;;;;;78.25;62.25;;;;;5.57;76.88;102002.28;5074337;28;45400;-80
2022/01/15 08:15:19;;;;;;;;;81.00;61.25;;;;;5.46;76.95;101987.84;5073816;28;46452;-80
2022/01/15 08:17:44;;;;;;;;;78.00;60.00;;;;;5.57;76.82;102002.28;5073701;28;46334;-79
2022/01/15 08:20:11;;;;;;;;;83.00;63.75;;;;;5.55;77.08;102004.94;5073697;28;45694;-80
2022/01/15 08:22:38;;;;;;;;;84.75;63.50;;;;;5.46;76.90;101987.00;5073550;28;45838;-78
2022/01/15 08:25:04;;;;;;;;;86.25;64.00;;;;;5.53;76.80;101992.88;5073083;28;46441;-82
2022/01/15 08:27:31;;;;;;;;;74.75;60.50;;;;;5.57;77.28;101997.94;5055313;28;47235;-79
2022/01/15 08:29:57;;;;;;;;;79.25;61.75;;;;;5.51;76.69;101995.50;5055934;28;45801;-80
2022/01/15 08:32:23;;;;;;;;;84.50;63.00;;;;;5.45;76.55;101982.72;5072401;28;45499;-80
2022/01/15 08:34:49;;;;;;;;;85.75;61.25;;;;;5.53;76.98;101991.13;5073334;28;46553;-80
2022/01/15 08:37:15;;;;;;;;;83.00;61.25;;;;;5.54;76.48;101998.03;5075922;28;46012;-79
2022/01/15 08:39:41;;;;;;;;;83.00;63.25;;;;;5.58;77.13;101996.19;5076297;28;45667;-79
2022/01/15 08:42:09;;;;;;;;;82.75;63.50;;;;;5.38;76.91;101963.84;5076445;28;45597;-79
2022/01/15 08:44:36;;;;;;;;;79.75;62.25;;;;;5.44;77.10;101974.06;5076363;28;46675;-81
2022/01/15 08:47:04;;;;;;;;;79.00;62.25;;;;;5.59;76.62;102006.56;5076643;28;46375;-79
2022/01/15 08:49:29;;;;;;;;;81.75;60.00;;;;;5.57;76.88;101994.50;5057700;28;45663;-80
2022/01/15 08:51:55;;;;;;;;;88.00;64.25;;;;;5.48;76.99;101986.06;5076763;28;45447;-80
2022/01/15 08:54:22;;;;;;;;;79.75;61.25;;;;;5.55;76.83;101997.16;5076052;28;47502;-80
2022/01/15 08:56:47;;;;;;;;;83.50;63.25;;;;;5.62;77.04;102010.81;5076540;28;46184;-81
2022/01/15 08:59:14;;;;;;;;;82.25;62.75;;;;;5.62;77.06;102016.84;5077335;28;45550;-80
2022/01/15 09:01:39;;;;;;;;;81.00;58.75;;;;;5.48;76.68;101991.28;5077742;28;45675;-80
2022/01/15 09:04:06;;;;;;;;;83.25;64.00;;;;;5.61;77.14;102011.72;5076553;28;48465;-77
2022/01/15 09:06:32;;;;;;;;;79.25;61.50;;;;;5.62;76.75;102011.66;5058324;28;45609;-77
2022/01/15 09:08:57;;;;;;;;;78.50;60.75;;;;;5.63;76.83;102012.50;5057759;28;45714;-76
2022/01/15 09:11:24;;;;;;;;;80.00;63.50;;;;;5.70;76.96;102016.66;5076354;28;45492;-78
2022/01/15 09:13:49;;;;;;;;;78.25;62.25;;;;;5.73;76.86;102013.97;5057307;28;47255;-76
2022/01/15 09:16:15;;;;;;;;;84.50;62.75;;;;;5.69;76.78;102002.81;5075505;28;46163;-79
2022/01/15 09:18:40;;;;;;;;;77.50;59.50;;;;;5.78;76.67;102012.94;5076165;28;45709;-78
2022/01/15 09:21:06;;;;;;;;;72.00;55.25;;;;;5.76;76.55;102000.88;5075799;28;45616;-80
2022/01/15 09:23:31;;;;;;;;;75.75;59.00;;;;;5.77;76.60;101994.78;5076089;28;46396;-79
2022/01/15 09:25:58;;;;;;;;;82.00;59.00;;;;;5.82;76.71;102000.72;5075487;28;47039;-77
2022/01/15 09:31:10;;;;;;;;;79.25;59.25;;;;;6.02;76.51;102011.41;5075557;28;45785;-77
2022/01/15 09:33:37;;;;;;;;;75.00;60.50;;;;;6.01;76.91;101995.84;5075842;28;46568;-77
2022/01/15 09:36:03;;;;;;;;;19.75;7.25;;;;;6.12;76.50;102015.44;5075772;28;45947;-77
2022/01/15 09:38:30;;;;;;;;;77.75;60.75;;;;;6.16;76.63;102005.78;5075444;28;45516;-75
2022/01/15 09:40:56;;;;;;;;;82.75;62.00;;;;;6.20;76.72;102010.00;5075963;28;45600;-78
2022/01/15 09:43:22;;;;;;;;;80.50;59.75;;;;;6.22;76.66;102018.59;5075793;28;45668;-76
2022/01/15 09:45:47;;;;;;;;;82.25;62.75;;;;;6.24;76.84;102022.88;5074867;28;46204;-78
2022/01/15 09:48:15;;;;;;;;;75.50;62.00;;;;;6.26;76.82;102017.63;5073717;28;45687;-78
2022/01/15 09:54:02;;;;;;;;;80.00;64.50;;;;;6.28;76.77;102005.41;5075383;28;45553;-78
2022/01/15 09:56:28;;;;;;;;;82.50;64.75;;;;;6.35;76.63;102006.94;5074843;28;45772;-80
2022/01/15 09:58:54;;;;;;;;;83.50;63.00;;;;;6.39;76.93;102013.75;5079169;28;45582;-79
2022/01/15 10:01:20;;;;;;;;;85.00;64.75;;;;;6.40;76.62;101997.22;5082439;28;45636;-76
2022/01/15 10:03:45;;;;;;;;;85.50;63.25;;;;;6.29;76.51;101976.75;5078154;28;46740;-78
2022/01/15 10:06:11;;;;;;;;;83.75;65.50;;;;;6.52;76.66;101998.59;5077766;28;46104;-76
2022/01/15 10:08:37;;;;;;;;;82.00;63.00;;;;;6.55;76.55;102001.09;5078220;28;45735;-77
2022/01/15 10:11:09;;;;;;;;;78.25;61.25;;;;;6.59;76.55;102000.94;5084189;28;45442;-78
2022/01/15 10:13:44;;;;;;;;;83.75;63.00;;;;;6.61;76.58;101996.53;5079440;28;45618;-78
2022/01/15 10:16:13;;;;;;;;;80.75;62.50;;;;;6.70;76.81;102005.78;5076960;28;46132;-78
2022/01/15 10:18:44;;;;;;;;;81.75;64.50;;;;;6.75;76.55;102006.50;5075920;28;45800;-77
2022/01/15 10:24:31;;;;;;;;;82.50;65.00;;;;;6.85;76.79;102007.94;5075524;28;45691;-79
2022/01/15 10:27:20;;;;;;;;;88.00;68.00;;;;;6.90;76.65;102006.00;5075434;28;46313;-79
2022/01/15 10:30:14;;;;;;;;;91.50;69.25;;;;;6.98;76.64;102003.13;5076622;28;45787;-82
2022/01/15 10:32:52;;;;;;;;;88.50;67.25;;;;;7.02;76.59;101992.56;5014504;28;45749;-81
2022/01/15 10:35:17;;;;;;;;;94.50;70.00;;;;;6.98;76.65;101974.47;5013646;28;45564;-81
2022/01/15 10:38:04;;;;;;;;;87.00;67.00;;;;;6.93;76.51;101952.94;5013029;28;46203;-77
2022/01/15 10:40:40;;;;;;;;;95.75;70.25;;;;;7.16;76.55;101985.13;5013090;28;45585;-78
2022/01/15 10:43:06;;;;;;;;;98.50;74.75;;;;;7.24;76.48;101979.63;5013214;28;45621;-76
2022/01/15 10:45:34;;;;;;;;;96.00;74.50;;;;;7.29;76.43;101971.69;5012584;28;45688;-79
2022/01/15 10:48:04;;;;;;;;;99.00;71.00;;;;;7.31;76.14;101973.31;5013298;28;46067;-81
2022/01/15 10:50:31;;;;;;;;;96.50;79.75;;;;;7.36;76.35;101974.00;5013083;28;45837;-83
2022/01/15 10:52:58;;;;;;;;;100.50;78.00;;;;;7.37;76.22;101964.41;5013421;28;45709;-81
2022/01/15 10:55:29;;;;;;;;;102.25;82.50;;;;;7.45;76.23;101968.44;5013037;28;45537;-81
2022/01/15 10:57:59;;;;;;;;;103.00;87.50;;;;;7.51;76.27;101969.97;5013070;28;45550;-79
2022/01/15 11:00:39;;;;;;;;;98.75;81.75;;;;;7.55;76.25;101966.38;5013573;28;45605;-79
2022/01/15 11:03:13;;;;;;;;;115.25;90.25;;;;;7.62;76.12;101969.56;5012898;28;45841;-80
2022/01/15 11:05:40;;;;;;;;;100.50;90.50;;;;;7.44;76.16;101938.09;5013033;28;45635;-80
2022/01/15 11:08:07;;;;;;;;;105.25;86.25;;;;;7.67;76.07;101963.28;5012806;28;46086;-78
2022/01/15 11:10:37;;;;;;;;;96.75;82.00;;;;;7.71;76.04;101964.91;5068240;28;45644;-77
2022/01/15 11:13:06;;;;;;;;;98.50;88.25;;;;;7.75;76.03;101968.22;5059931;28;45535;-80
2022/01/15 11:15:33;;;;;;;;;104.00;86.50;;;;;7.75;75.91;101952.56;5057198;28;47482;-77
2022/01/15 11:18:00;;;;;;;;;103.75;90.00;;;;;7.83;75.96;101959.19;5074054;28;46274;-81
2022/01/15 11:20:31;;;;;;;;;106.50;92.25;;;;;7.70;75.95;101925.81;5075677;28;45583;-83
2022/01/15 11:22:56;;;;;;;;;118.50;94.75;;;;;7.88;75.79;101944.22;5074820;28;45620;-79
2022/01/15 11:25:22;;;;;;;;;116.00;96.50;;;;;7.83;75.88;101934.84;5074100;28;46755;-78
2022/01/15 11:27:49;;;;;;;;;103.25;91.25;;;;;7.95;76.17;101948.28;5074272;28;45765;-80
2022/01/15 11:30:14;;;;;;;;;110.00;94.50;;;;;7.99;75.84;101941.19;5074902;28;45614;-79
2022/01/15 11:32:42;;;;;;;;;110.75;99.25;;;;;7.97;75.79;101923.00;5074681;28;45668;-79
2022/01/15 11:35:09;;;;;;;;;120.75;97.75;;;;;8.02;75.54;101920.22;5074240;28;46369;-80
2022/01/15 11:37:56;;;;;;;;;107.75;93.75;;;;;8.06;75.71;101921.78;5073938;28;46034;-79
2022/01/15 11:40:46;;;;;;;;;107.00;94.00;;;;;8.14;75.60;101921.50;5075052;28;45738;-79
2022/01/15 11:43:23;;;;;;;;;124.25;102.00;;;;;8.18;75.42;101920.44;5058821;28;45563;-76
2022/01/15 11:45:49;;;;;;;;;104.00;91.50;;;;;8.14;75.62;101911.91;5079311;28;46805;-79
2022/01/15 11:48:28;;;;;;;;;113.75;101.25;;;;;8.22;75.41;101915.03;5075028;28;45640;-76
2022/01/15 11:51:25;;;;;;;;;116.75;94.00;;;;;8.26;75.61;101911.38;5073745;28;45623;-75
2022/01/15 11:54:00;;;;;;;;;114.25;100.00;;;;;8.29;75.34;101913.88;5054253;28;45555;-80
2022/01/15 11:56:35;;;;;;;;;125.75;99.75;;;;;8.33;75.51;101909.41;5073568;28;46723;-80
2022/01/15 11:59:23;;;;;;;;;115.25;102.00;;;;;8.36;75.42;101898.84;5073778;28;46082;-81
2022/01/15 12:01:53;;;;;;;;;135.50;114.50;;;;;8.40;75.25;101893.44;5073687;28;45810;-76
2022/01/15 12:04:32;;;;;;;;;124.25;103.75;;;;;8.42;75.24;101886.38;5073778;28;45529;-77
2022/01/15 12:07:01;;;;;;;;;104.75;97.50;;;;;8.46;75.31;101879.28;5073040;28;45592;-79
2022/01/15 12:09:39;;;;;;;;;130.50;103.75;;;;;8.39;75.14;101856.94;5073479;28;45633;-77
2022/01/15 12:12:20;;;;;;;;;120.50;99.75;;;;;8.53;75.11;101867.63;5077071;28;45628;-78
2022/01/15 12:14:53;;;;;;;;;124.00;101.75;;;;;8.56;75.21;101871.91;5076792;28;45786;-76
2022/01/15 12:17:31;;;;;;;;;118.50;102.25;;;;;8.59;74.95;101863.91;5058423;28;48827;-76
2022/01/15 12:20:03;;;;;;;;;132.75;109.50;;;;;8.62;74.83;101864.66;5077089;28;45922;-77
2022/01/15 12:22:52;;;;;;;;;105.75;94.00;;;;;8.31;74.75;101805.03;5077150;28;45769;-79
2022/01/15 12:25:17;;;;;;;;;114.25;101.25;;;;;8.68;74.72;101855.72;4975065;28;45852;-81
2022/01/15 12:27:46;;;;;;;;;118.00;102.67;;;;;8.70;74.70;101853.84;4974811;28;45745;-77
2022/01/15 12:30:23;;;;;;;;;118.50;98.00;;;;;8.72;74.73;101847.66;4974999;28;46018;-78
2022/01/15 12:32:51;;;;;;;;;109.25;95.50;;;;;8.71;74.63;101840.75;4974834;28;45815;-79
2022/01/15 12:38:38;;;;;;;;;128.25;102.25;;;;;8.79;74.66;101845.66;4974522;28;45654;-78
2022/01/15 12:41:06;;;;;;;;;115.00;95.25;;;;;8.81;74.66;101841.19;4974699;28;45744;-77
2022/01/15 12:43:36;;;;;;;;;102.00;93.00;;;;;8.81;74.69;101833.34;4974993;28;45638;-89
2022/01/15 12:46:07;;;;;;;;;115.75;100.75;;;;;8.69;74.47;101798.16;4976230;28;45608;-80
2022/01/15 12:48:39;;;;;;;;;114.50;98.75;;;;;8.93;74.35;101832.81;4976222;28;46410;-81
2022/01/15 12:54:31;;;;;;;;;110.75;100.25;;;;;8.98;74.37;101806.47;4978258;28;45523;-77
2022/01/15 12:56:57;;;;;;;;;97.75;93.75;;;;;9.00;74.40;101809.88;4984871;28;45107;-79
2022/01/15 12:59:28;;;;;;;;;111.50;96.50;;;;;9.04;74.42;101809.66;4983895;28;46350;-76
2022/01/15 13:01:54;;;;;;;;;111.50;96.50;;;;;9.09;74.12;101801.59;5019070;28;45770;-76
2022/01/15 13:04:20;;;;;;;;;110.75;96.25;;;;;9.11;74.12;101805.84;5091356;28;45597;-77
2022/01/15 13:10:37;;;;;;;;;121.00;104.00;;;;;9.13;74.14;101782.22;5076682;28;46749;-82
2022/01/15 13:13:03;;;;;;;;;118.75;98.50;;;;;9.15;74.15;101786.47;5078243;28;47181;-82
2022/01/15 13:15:30;;;;;;;;;117.50;98.00;;;;;9.10;73.97;101774.53;5077514;28;45450;-81
2022/01/15 13:17:56;;;;;;;;;124.50;105.25;;;;;9.16;73.76;101766.41;5058669;28;45770;-79